createdAt,value
2017-10-17T00:00:06.795Z,10.10
2017-10-17T00:02:34.303Z,9.80
2017-10-17T00:05:01.826Z,8.00
2017-10-17T00:07:29.402Z,8.60
2017-10-17T00:09:57.057Z,8.27
2017-10-17T00:12:24.558Z,9.17
2017-10-17T00:14:52.107Z,9.03
2017-10-17T00:17:19.632Z,9.20
2017-10-17T00:19:47.210Z,8.27
2017-10-17T00:22:14.732Z,9.63
2017-10-17T00:24:42.246Z,8.53
2017-10-17T00:27:09.757Z,8.83
2017-10-17T00:29:37.262Z,8.10
2017-10-17T00:32:04.879Z,9.17
2017-10-17T00:34:32.395Z,9.30
2017-10-17T00:37:00.025Z,10.10
2017-10-17T00:39:27.676Z,8.50
2017-10-17T00:41:55.336Z,7.90
2017-10-17T00:44:22.996Z,9.03
2017-10-17T00:46:50.652Z,8.40
2017-10-17T00:49:18.179Z,9.83
2017-10-17T00:51:45.703Z,11.93
2017-10-17T00:54:13.206Z,10.50
2017-10-17T00:56:40.783Z,8.87
2017-10-17T00:59:08.446Z,8.90
2017-10-17T01:01:36.107Z,9.60
2017-10-17T01:04:03.895Z,9.03
2017-10-17T01:06:31.544Z,8.73
2017-10-17T01:08:59.180Z,8.20
2017-10-17T01:11:26.693Z,9.53
2017-10-17T01:13:54.335Z,10.53
2017-10-17T01:16:21.965Z,9.43
2017-10-17T01:18:49.476Z,11.10
2017-10-17T01:21:16.983Z,9.10
2017-10-17T01:23:48.347Z,8.83
2017-10-17T01:26:20.268Z,9.53
2017-10-17T01:28:47.851Z,8.30
2017-10-17T01:31:15.395Z,7.60
2017-10-17T01:33:44.701Z,9.73
2017-10-17T01:36:12.227Z,10.87
2017-10-17T01:38:45.292Z,8.60
2017-10-17T01:41:12.839Z,9.07
2017-10-17T01:43:42.228Z,8.10
2017-10-17T01:46:10.556Z,8.67
2017-10-17T01:48:38.902Z,7.70
2017-10-17T01:51:19.999Z,9.47
2017-10-17T01:53:50.396Z,9.30
2017-10-17T01:56:18.763Z,9.60
2017-10-17T01:58:46.267Z,8.80
2017-10-17T02:01:13.763Z,9.10
2017-10-17T02:03:41.423Z,9.53
2017-10-17T02:06:09.112Z,10.87
2017-10-17T02:08:36.621Z,9.60
2017-10-17T02:11:10.622Z,10.70
2017-10-17T02:13:38.226Z,9.00
2017-10-17T02:16:05.743Z,10.07
2017-10-17T02:18:38.579Z,10.33
2017-10-17T02:21:09.659Z,9.27
2017-10-17T02:23:37.160Z,9.80
2017-10-17T02:26:12.111Z,10.30
2017-10-17T02:28:49.555Z,10.50
2017-10-17T02:31:17.058Z,9.10
2017-10-17T02:34:07.215Z,9.00
2017-10-17T02:36:45.248Z,7.87
2017-10-17T02:39:12.748Z,8.20
2017-10-17T02:41:40.357Z,7.83
2017-10-17T02:44:07.862Z,9.53
2017-10-17T02:46:37.192Z,10.40
2017-10-17T02:49:05.560Z,10.33
2017-10-17T02:51:33.234Z,9.83
2017-10-17T02:54:00.931Z,9.37
2017-10-17T02:56:28.564Z,12.93
2017-10-17T02:58:56.226Z,9.67
2017-10-17T03:01:26.320Z,8.40
2017-10-17T03:03:53.940Z,7.63
2017-10-17T03:06:21.573Z,8.07
2017-10-17T03:08:49.167Z,6.93
2017-10-17T03:11:16.675Z,8.47
2017-10-17T03:13:51.817Z,6.43
2017-10-17T03:16:19.495Z,6.33
2017-10-17T03:18:47.865Z,7.80
2017-10-17T03:21:16.113Z,8.23
2017-10-17T03:23:44.422Z,9.37
2017-10-17T03:26:11.941Z,8.37
2017-10-17T03:28:40.327Z,7.93
2017-10-17T03:31:08.625Z,6.90
2017-10-17T03:33:36.135Z,7.60
2017-10-17T03:39:09.514Z,5.93
2017-10-17T03:41:37.154Z,7.80
2017-10-17T03:44:11.515Z,8.60
2017-10-17T03:46:54.708Z,8.23
2017-10-17T03:49:41.829Z,7.50
2017-10-17T03:52:12.052Z,8.97
2017-10-17T03:54:39.607Z,8.67
2017-10-17T03:57:08.045Z,9.87
2017-10-17T03:59:35.553Z,9.20
2017-10-17T04:02:03.202Z,10.73
2017-10-17T04:04:52.356Z,9.00
2017-10-17T04:07:36.784Z,9.23
2017-10-17T04:10:10.015Z,9.43
2017-10-17T04:12:37.564Z,9.10
2017-10-17T04:15:05.884Z,8.67
2017-10-17T04:17:40.187Z,7.33
2017-10-17T04:20:21.239Z,8.50
2017-10-17T04:26:03.276Z,9.53
2017-10-17T04:28:48.587Z,7.50
2017-10-17T04:31:37.896Z,8.10
2017-10-17T04:37:03.950Z,9.60
2017-10-17T04:39:31.720Z,7.80
2017-10-17T04:41:59.240Z,8.73
2017-10-17T04:47:37.447Z,9.27
2017-10-17T04:50:27.682Z,8.90
2017-10-17T04:56:27.159Z,7.93
2017-10-17T04:59:06.601Z,7.47
2017-10-17T05:01:34.115Z,9.50
2017-10-17T05:04:23.298Z,8.53
2017-10-17T05:06:50.798Z,8.20
2017-10-17T05:09:21.944Z,7.10
2017-10-17T05:11:49.460Z,7.60
2017-10-17T05:14:28.762Z,7.97
2017-10-17T05:17:00.244Z,7.87
2017-10-17T05:19:36.588Z,7.63
2017-10-17T05:22:32.544Z,7.27
2017-10-17T05:25:24.850Z,9.23
2017-10-17T05:27:59.232Z,8.73
2017-10-17T05:30:29.592Z,8.50
2017-10-17T05:33:17.119Z,7.33
2017-10-17T05:35:44.659Z,8.20
2017-10-17T05:38:12.359Z,8.53
2017-10-17T05:40:39.887Z,8.00
2017-10-17T05:43:07.409Z,9.73
2017-10-17T05:45:34.925Z,9.30
2017-10-17T05:48:03.285Z,10.23
2017-10-17T05:53:30.767Z,9.47
2017-10-17T05:55:58.294Z,8.63
2017-10-17T05:58:25.829Z,9.77
2017-10-17T06:00:53.345Z,8.77
2017-10-17T06:03:20.944Z,8.83
2017-10-17T06:05:48.453Z,10.07
2017-10-17T06:08:15.986Z,10.60
2017-10-17T06:10:43.531Z,9.10
2017-10-17T06:13:11.069Z,10.40
2017-10-17T06:15:38.607Z,9.20
2017-10-17T06:18:06.147Z,9.53
2017-10-17T06:20:33.654Z,9.53
2017-10-17T06:23:01.177Z,9.63
2017-10-17T06:25:28.700Z,9.50
2017-10-17T06:27:56.226Z,10.07
2017-10-17T06:30:23.754Z,10.00
2017-10-17T06:32:51.255Z,8.93
2017-10-17T06:35:18.792Z,9.57
2017-10-17T06:37:46.311Z,9.47
2017-10-17T06:40:13.870Z,10.63
2017-10-17T06:42:41.392Z,10.80
2017-10-17T06:45:08.899Z,9.00
2017-10-17T06:47:36.396Z,8.20
2017-10-17T06:50:03.903Z,9.03
2017-10-17T06:52:31.437Z,10.23
2017-10-17T06:54:58.960Z,9.17
2017-10-17T06:57:26.590Z,11.57
2017-10-17T06:59:54.149Z,8.60
2017-10-17T07:02:21.665Z,9.60
2017-10-17T07:04:49.175Z,8.83
2017-10-17T07:07:16.695Z,8.30
2017-10-17T07:09:44.200Z,8.27
2017-10-17T07:12:11.735Z,9.80
2017-10-17T07:14:39.270Z,8.60
2017-10-17T07:17:06.784Z,8.90
2017-10-17T07:19:34.307Z,8.77
2017-10-17T07:22:01.815Z,9.10
2017-10-17T07:24:29.339Z,9.70
2017-10-17T07:26:56.841Z,9.33
2017-10-17T07:29:24.356Z,9.70
2017-10-17T07:31:51.867Z,8.97
2017-10-17T07:34:19.405Z,10.97
2017-10-17T07:36:46.923Z,8.60
2017-10-17T07:39:14.447Z,9.07
2017-10-17T07:41:41.989Z,9.47
2017-10-17T07:44:09.508Z,8.30
2017-10-17T07:46:37.025Z,9.03
2017-10-17T07:49:04.545Z,8.83
2017-10-17T07:51:32.071Z,8.03
2017-10-17T07:53:59.606Z,7.93
2017-10-17T07:56:27.109Z,7.00
2017-10-17T07:58:54.626Z,7.77
2017-10-17T08:01:22.134Z,6.43
2017-10-17T08:03:49.641Z,6.90
2017-10-17T08:06:17.163Z,7.00
2017-10-17T08:08:44.690Z,6.83
2017-10-17T08:11:12.220Z,7.13
2017-10-17T08:13:39.746Z,9.00
2017-10-17T08:16:07.269Z,7.37
2017-10-17T08:18:34.799Z,7.50
2017-10-17T08:21:02.317Z,6.60
2017-10-17T08:23:29.835Z,7.30
2017-10-17T08:25:57.344Z,7.07
2017-10-17T08:28:24.854Z,6.70
2017-10-17T08:30:52.372Z,6.80
2017-10-17T08:33:19.897Z,7.17
2017-10-17T08:35:47.446Z,8.40
2017-10-17T08:38:14.998Z,6.93
2017-10-17T08:40:42.508Z,6.80
2017-10-17T08:43:10.055Z,7.60
2017-10-17T08:45:37.589Z,15.43
2017-10-17T08:48:05.142Z,6.67
2017-10-17T08:50:32.644Z,6.20
2017-10-17T08:53:00.159Z,6.40
2017-10-17T08:55:27.685Z,7.43
2017-10-17T08:57:55.212Z,6.47
2017-10-17T09:00:22.731Z,6.57
2017-10-17T09:02:50.248Z,6.77
2017-10-17T09:05:17.751Z,6.90
2017-10-17T09:07:45.262Z,7.47
2017-10-17T09:10:12.787Z,6.50
2017-10-17T09:12:40.299Z,6.20
2017-10-17T09:15:07.828Z,6.80
2017-10-17T09:17:35.336Z,6.73
2017-10-17T09:20:02.838Z,6.13
2017-10-17T09:22:30.384Z,6.00
2017-10-17T09:24:57.895Z,5.67
2017-10-17T09:27:25.407Z,6.70
2017-10-17T09:29:52.929Z,6.43
2017-10-17T09:32:20.467Z,6.10
2017-10-17T09:34:47.992Z,5.80
2017-10-17T09:37:15.503Z,5.17
2017-10-17T09:39:43.012Z,5.30
2017-10-17T09:42:10.547Z,6.10
2017-10-17T09:44:38.095Z,6.00
2017-10-17T09:47:05.641Z,5.27
2017-10-17T09:49:33.164Z,5.17
2017-10-17T09:52:00.694Z,5.97
2017-10-17T09:54:28.204Z,5.30
2017-10-17T09:56:55.718Z,5.00
2017-10-17T09:59:23.229Z,5.10
2017-10-17T10:01:50.779Z,5.00
2017-10-17T10:04:18.308Z,4.70
2017-10-17T10:06:45.812Z,5.30
2017-10-17T10:09:13.343Z,5.20
2017-10-17T10:11:40.973Z,4.80
2017-10-17T10:14:08.483Z,5.20
2017-10-17T10:16:35.995Z,5.07
2017-10-17T10:19:03.522Z,11.00
2017-10-17T10:21:31.020Z,4.33
2017-10-17T10:23:58.530Z,4.90
2017-10-17T10:26:26.043Z,4.90
2017-10-17T10:28:53.552Z,4.47
2017-10-17T10:31:21.080Z,4.80
2017-10-17T10:33:48.614Z,7.60
2017-10-17T10:36:16.128Z,4.80
2017-10-17T10:38:43.698Z,4.13
2017-10-17T10:41:11.231Z,4.53
2017-10-17T10:43:38.767Z,4.30
2017-10-17T10:46:06.275Z,4.93
2017-10-17T10:48:33.783Z,4.10
2017-10-17T10:51:01.310Z,4.50
2017-10-17T10:53:28.832Z,4.47
2017-10-17T10:55:56.344Z,6.20
2017-10-17T10:58:23.961Z,22.87
2017-10-17T11:00:51.517Z,3.77
2017-10-17T11:03:19.024Z,3.93
2017-10-17T11:05:46.544Z,4.03
2017-10-17T11:08:14.071Z,3.50
2017-10-17T11:10:41.587Z,3.40
2017-10-17T11:13:09.098Z,3.37
2017-10-17T11:15:36.634Z,2.83
2017-10-17T11:18:04.142Z,3.40
2017-10-17T11:20:31.654Z,2.75
2017-10-17T11:22:59.193Z,3.87
2017-10-17T11:25:26.715Z,2.97
2017-10-17T11:27:54.233Z,3.00
2017-10-17T11:30:21.749Z,3.33
2017-10-17T11:32:49.268Z,3.62
2017-10-17T11:35:16.788Z,3.30
2017-10-17T11:37:44.324Z,2.90
2017-10-17T11:40:11.955Z,18.63
2017-10-17T11:42:51.388Z,3.83
2017-10-17T11:45:18.894Z,2.60
2017-10-17T11:47:46.443Z,2.62
2017-10-17T11:50:13.942Z,2.45
2017-10-17T11:52:41.463Z,2.45
2017-10-17T11:55:08.984Z,2.22
2017-10-17T11:57:36.531Z,2.25
2017-10-17T12:00:04.103Z,2.35
2017-10-17T12:02:31.631Z,2.22
2017-10-17T12:04:59.137Z,2.03
2017-10-17T12:07:26.660Z,2.23
2017-10-17T12:09:54.204Z,2.70
2017-10-17T12:12:21.749Z,3.10
2017-10-17T12:14:49.300Z,3.03
2017-10-17T12:17:16.824Z,3.43
2017-10-17T12:19:44.357Z,3.00
2017-10-17T12:22:11.874Z,2.87
2017-10-17T12:24:39.480Z,2.93
2017-10-17T12:27:06.988Z,2.93
2017-10-17T12:29:34.507Z,2.50
2017-10-17T12:32:02.031Z,2.20
2017-10-17T12:34:29.729Z,2.40
2017-10-17T12:36:57.258Z,2.40
2017-10-17T12:39:24.812Z,2.83
2017-10-17T12:41:52.335Z,2.20
2017-10-17T12:44:19.971Z,2.30
2017-10-17T12:46:47.490Z,2.50
2017-10-17T12:49:15.008Z,2.40
2017-10-17T12:51:42.537Z,2.07
2017-10-17T12:54:10.051Z,2.17
2017-10-17T12:56:37.559Z,2.17
2017-10-17T12:59:05.424Z,2.07
2017-10-17T13:01:32.938Z,2.40
2017-10-17T13:04:00.437Z,2.50
2017-10-17T13:06:27.976Z,2.20
2017-10-17T13:08:55.500Z,2.70
2017-10-17T13:11:23.169Z,2.33
2017-10-17T13:13:50.686Z,2.87
2017-10-17T13:16:18.221Z,2.60
2017-10-17T13:18:45.862Z,2.10
2017-10-17T13:21:13.370Z,2.60
2017-10-17T13:23:40.885Z,2.53
2017-10-17T13:26:08.406Z,2.20
2017-10-17T13:28:35.913Z,2.50
2017-10-17T13:31:03.466Z,2.73
2017-10-17T13:33:30.975Z,2.90
2017-10-17T13:35:58.497Z,3.03
2017-10-17T13:38:26.007Z,2.80
2017-10-17T13:40:53.510Z,3.23
2017-10-17T13:43:21.025Z,2.90
2017-10-17T13:45:48.558Z,2.90
2017-10-17T13:48:16.067Z,3.60
2017-10-17T13:50:43.579Z,3.17
2017-10-17T13:53:11.090Z,3.50
2017-10-17T13:55:38.606Z,3.00
2017-10-17T13:58:06.128Z,2.87
2017-10-17T14:00:33.672Z,4.50
2017-10-17T14:03:01.207Z,3.43
2017-10-17T14:05:28.735Z,2.70
2017-10-17T14:07:56.252Z,2.87
2017-10-17T14:10:23.752Z,3.63
2017-10-17T14:12:51.263Z,3.27
2017-10-17T14:15:18.783Z,2.93
2017-10-17T14:17:46.304Z,4.00
2017-10-17T14:20:13.809Z,4.70
2017-10-17T14:22:41.343Z,5.80
2017-10-17T14:25:08.856Z,6.50
2017-10-17T14:27:36.371Z,11.30
2017-10-17T14:30:03.904Z,7.77
2017-10-17T14:32:31.423Z,7.30
2017-10-17T14:34:58.931Z,5.70
2017-10-17T14:37:26.429Z,6.67
2017-10-17T14:39:53.966Z,6.57
2017-10-17T14:42:21.492Z,6.90
2017-10-17T14:44:49.014Z,6.10
2017-10-17T14:47:16.541Z,5.33
2017-10-17T14:49:44.229Z,7.40
2017-10-17T14:52:11.784Z,6.00
2017-10-17T14:54:39.335Z,6.43
2017-10-17T14:57:06.900Z,6.40
2017-10-17T14:59:34.455Z,5.50
2017-10-17T15:02:01.980Z,6.53
2017-10-17T15:04:29.496Z,6.13
2017-10-17T15:06:57.022Z,6.60
2017-10-17T15:09:24.537Z,7.00
2017-10-17T15:11:52.056Z,6.53
2017-10-17T15:14:19.612Z,5.80
2017-10-17T15:16:47.160Z,6.50
2017-10-17T15:19:14.680Z,7.07
2017-10-17T15:21:42.205Z,6.17
2017-10-17T15:24:09.711Z,5.83
2017-10-17T15:26:37.228Z,5.70
2017-10-17T15:29:04.753Z,5.20
2017-10-17T15:31:32.266Z,6.83
2017-10-17T15:33:59.785Z,5.17
2017-10-17T15:36:27.329Z,5.40
2017-10-17T15:38:54.939Z,5.30
2017-10-17T15:41:22.467Z,5.30
2017-10-17T15:43:50.003Z,5.80
2017-10-17T15:46:17.575Z,6.47
2017-10-17T15:48:45.107Z,6.40
2017-10-17T15:51:12.635Z,6.67
2017-10-17T15:53:40.154Z,6.53
2017-10-17T15:56:07.685Z,7.37
2017-10-17T15:58:35.280Z,7.30
2017-10-17T16:01:02.797Z,5.93
2017-10-17T16:03:30.320Z,8.20
2017-10-17T16:05:57.833Z,7.13
2017-10-17T16:08:25.364Z,6.87
2017-10-17T16:10:52.880Z,7.23
2017-10-17T16:13:20.406Z,6.60
2017-10-17T16:15:48.024Z,7.30
2017-10-17T16:18:15.554Z,6.03
2017-10-17T16:20:43.077Z,6.27
2017-10-17T16:23:10.608Z,6.07
2017-10-17T16:25:38.133Z,6.50
2017-10-17T16:28:05.663Z,6.97
2017-10-17T16:30:33.191Z,6.63
2017-10-17T16:33:00.745Z,6.27
2017-10-17T16:35:28.267Z,6.90
2017-10-17T16:37:55.780Z,6.20
2017-10-17T16:40:23.358Z,6.10
2017-10-17T16:42:50.883Z,6.80
2017-10-17T16:45:18.488Z,7.90
2017-10-17T16:47:46.020Z,6.90
2017-10-17T16:50:13.600Z,6.63
2017-10-17T16:52:41.145Z,7.10
2017-10-17T16:55:08.685Z,6.20
2017-10-17T16:57:36.246Z,7.20
2017-10-17T17:00:03.803Z,8.70
2017-10-17T17:02:31.346Z,6.00
2017-10-17T17:04:58.918Z,7.10
2017-10-17T17:07:26.451Z,6.70
2017-10-17T17:09:53.968Z,7.07
2017-10-17T17:12:21.493Z,7.30
2017-10-17T17:14:49.031Z,7.50
2017-10-17T17:17:16.578Z,7.47
2017-10-17T17:19:44.082Z,7.50
2017-10-17T17:22:11.594Z,6.87
2017-10-17T17:24:39.135Z,6.40
2017-10-17T17:27:06.667Z,8.47
2017-10-17T17:29:34.199Z,6.77
2017-10-17T17:32:01.729Z,6.90
2017-10-17T17:34:29.245Z,7.70
2017-10-17T17:36:56.770Z,7.47
2017-10-17T17:39:24.315Z,5.87
2017-10-17T17:41:51.833Z,5.40
2017-10-17T17:44:19.374Z,8.93
2017-10-17T17:46:46.948Z,7.70
2017-10-17T17:49:14.496Z,11.80
2017-10-17T17:51:42.012Z,10.07
2017-10-17T17:54:09.562Z,9.00
2017-10-17T17:56:37.138Z,8.47
2017-10-17T17:59:04.779Z,8.70
2017-10-17T18:01:32.300Z,7.43
2017-10-17T18:03:59.832Z,8.47
2017-10-17T18:06:27.367Z,7.70
2017-10-17T18:08:54.891Z,9.37
2017-10-17T18:11:22.433Z,7.60
2017-10-17T18:13:49.979Z,9.60
2017-10-17T18:16:17.598Z,8.33
2017-10-17T18:18:45.153Z,9.47
2017-10-17T18:21:12.688Z,9.47
2017-10-17T18:23:40.214Z,9.50
2017-10-17T18:26:07.824Z,8.83
2017-10-17T18:28:35.356Z,8.53
2017-10-17T18:31:02.905Z,8.97
2017-10-17T18:33:30.425Z,9.87
2017-10-17T18:36:00.015Z,8.30
2017-10-17T18:38:27.671Z,8.43
2017-10-17T18:40:55.247Z,8.10
2017-10-17T18:43:22.770Z,9.20
2017-10-17T18:45:50.288Z,7.30
2017-10-17T18:48:17.807Z,29.53
2017-10-17T18:50:45.352Z,8.00
2017-10-17T18:53:12.880Z,8.30
2017-10-17T18:55:40.442Z,8.30
2017-10-17T18:58:07.964Z,8.50
2017-10-17T19:00:36.707Z,8.00
2017-10-17T19:03:04.265Z,8.60
2017-10-17T19:05:31.818Z,8.50
2017-10-17T19:07:59.347Z,8.20
2017-10-17T19:10:26.874Z,9.40
2017-10-17T19:12:54.433Z,8.50
2017-10-17T19:15:21.985Z,7.97
2017-10-17T19:17:49.513Z,7.67
2017-10-17T19:20:17.113Z,7.43
2017-10-17T19:22:44.677Z,7.47
2017-10-17T19:25:12.219Z,8.30
2017-10-17T19:27:39.913Z,9.90
2017-10-17T19:30:07.466Z,9.03
2017-10-17T19:32:35.023Z,9.23
2017-10-17T19:35:02.582Z,8.07
2017-10-17T19:37:30.125Z,9.60
2017-10-17T19:39:57.674Z,8.50
2017-10-17T19:42:25.233Z,8.70
2017-10-17T19:44:52.784Z,10.10
2017-10-17T19:47:20.389Z,9.40
2017-10-17T19:49:47.978Z,10.20
2017-10-17T19:52:15.495Z,8.80
2017-10-17T19:54:43.002Z,9.87
2017-10-17T19:57:10.573Z,9.53
2017-10-17T19:59:38.084Z,10.07
2017-10-17T20:02:05.599Z,8.60
2017-10-17T20:04:33.143Z,10.00
2017-10-17T20:07:00.668Z,9.07
2017-10-17T20:09:28.200Z,10.80
2017-10-17T20:11:55.736Z,9.07
2017-10-17T20:14:23.239Z,8.83
2017-10-17T20:16:50.776Z,9.00
2017-10-17T20:19:18.303Z,9.27
2017-10-17T20:21:45.856Z,8.27
2017-10-17T20:24:13.411Z,9.10
2017-10-17T20:26:40.927Z,8.20
2017-10-17T20:29:08.519Z,8.50
2017-10-17T20:31:36.028Z,8.67
2017-10-17T20:34:03.531Z,8.67
2017-10-17T20:36:31.059Z,9.87
2017-10-17T20:38:58.571Z,10.10
2017-10-17T20:41:26.109Z,8.63
2017-10-17T20:43:53.672Z,8.87
2017-10-17T20:46:21.211Z,8.53
2017-10-17T20:48:48.772Z,7.57
2017-10-17T20:51:16.272Z,7.90
2017-10-17T20:53:43.795Z,8.40
2017-10-17T20:56:11.367Z,7.47
2017-10-17T20:58:38.920Z,8.57
2017-10-17T21:01:06.458Z,10.47
2017-10-17T21:03:34.095Z,9.00
2017-10-17T21:06:01.666Z,8.60
2017-10-17T21:08:29.222Z,8.10
2017-10-17T21:10:56.798Z,10.47
2017-10-17T21:13:24.334Z,8.20
2017-10-17T21:15:52.001Z,8.60
2017-10-17T21:18:19.558Z,7.17
2017-10-17T21:20:47.105Z,8.37
2017-10-17T21:23:14.647Z,9.50
2017-10-17T21:25:42.181Z,9.80
2017-10-17T21:28:09.731Z,10.43
2017-10-17T21:30:37.296Z,9.63
2017-10-17T21:33:04.816Z,8.80
2017-10-17T21:35:32.464Z,8.27
2017-10-17T21:37:59.996Z,9.40
2017-10-17T21:40:27.507Z,9.40
2017-10-17T21:42:55.034Z,10.87
2017-10-17T21:45:22.704Z,10.00
2017-10-17T21:47:50.224Z,9.00
2017-10-17T21:50:17.770Z,9.73
2017-10-17T21:52:45.299Z,11.67
2017-10-17T21:55:12.819Z,9.20
2017-10-17T21:57:40.331Z,9.27
2017-10-17T22:00:07.868Z,10.90
2017-10-17T22:03:03.627Z,11.07
2017-10-17T22:05:39.049Z,9.23
2017-10-17T22:08:06.876Z,8.83
2017-10-17T22:10:34.398Z,8.20
2017-10-17T22:13:01.922Z,9.37
2017-10-17T22:15:29.454Z,9.70
2017-10-17T22:17:56.984Z,10.10
2017-10-17T22:20:24.491Z,9.00
2017-10-17T22:22:52.011Z,10.77
2017-10-17T22:25:19.525Z,9.20
2017-10-17T22:27:47.033Z,9.47
2017-10-17T22:30:14.557Z,12.00
2017-10-17T22:32:42.160Z,10.13
2017-10-17T22:35:09.728Z,11.00
2017-10-17T22:37:37.247Z,11.03
2017-10-17T22:40:04.766Z,9.13
2017-10-17T22:42:32.287Z,10.00
2017-10-17T22:44:59.808Z,10.53
2017-10-17T22:47:27.313Z,9.50
2017-10-17T22:49:54.815Z,9.43
2017-10-17T22:52:22.328Z,11.00
2017-10-17T22:54:49.853Z,11.17
2017-10-17T22:57:17.347Z,12.67
2017-10-17T22:59:44.858Z,18.13
2017-10-17T23:02:12.377Z,16.53
2017-10-17T23:04:39.893Z,12.80
2017-10-17T23:07:07.393Z,11.10
2017-10-17T23:09:34.900Z,12.50
2017-10-17T23:12:02.411Z,10.77
2017-10-17T23:14:29.922Z,11.27
2017-10-17T23:17:09.487Z,10.80
2017-10-17T23:19:48.949Z,11.93
2017-10-17T23:22:16.457Z,12.87
2017-10-17T23:24:43.979Z,12.33
2017-10-17T23:27:11.506Z,14.07
2017-10-17T23:29:39.034Z,12.03
2017-10-17T23:32:06.552Z,11.03
2017-10-17T23:34:34.066Z,11.93
2017-10-17T23:37:01.597Z,11.33
2017-10-17T23:39:29.168Z,11.10
2017-10-17T23:41:56.682Z,14.17
2017-10-17T23:44:24.199Z,13.40
2017-10-17T23:46:51.709Z,11.20
2017-10-17T23:49:19.221Z,10.93
2017-10-17T23:51:46.725Z,11.40
2017-10-17T23:54:14.254Z,9.73
2017-10-17T23:56:41.765Z,9.67
2017-10-17T23:59:09.274Z,9.73
